Time;durP1;ratioP1;P1;durP2;ratioP2;P2;SDS_P1;SDS_P2;PMS_P1;PMS_P2;Temp;Humidity;BMP_temperature;BMP_pressure;BME280_temperature;BME280_humidity;BME280_pressure;Samples;Min_cycle;Max_cycle;Signal;HPM_P1;HPM_P2
2023/04/27 00:01:00;;;;;;;13.20;2.63;;;;;;;3.91;100.00;101206.94;4897755;29;20078;-74
2023/04/27 00:03:27;;;;;;;9.40;2.45;;;;;;;3.98;100.00;101201.09;4914111;29;20118;-74
2023/04/27 00:05:53;;;;;;;9.15;1.80;;;;;;;3.95;100.00;101201.31;4914298;29;20052;-75
2023/04/27 00:08:20;;;;;;;10.43;1.90;;;;;;;3.94;100.00;101196.13;4906267;29;20114;-73
2023/04/27 00:10:47;;;;;;;4.80;1.83;;;;;;;3.99;100.00;101196.63;4912025;29;20056;-75
2023/04/27 00:13:13;;;;;;;7.68;1.83;;;;;;;3.93;100.00;101197.94;4914841;29;20409;-75
2023/04/27 00:15:40;;;;;;;6.68;1.70;;;;;;;3.92;100.00;101201.50;4915023;29;20059;-74
2023/04/27 00:18:07;;;;;;;7.20;1.92;;;;;;;3.85;100.00;101193.13;4914794;29;20044;-73
2023/04/27 00:20:33;;;;;;;10.13;2.10;;;;;;;3.88;100.00;101199.19;4914060;29;20052;-74
2023/04/27 00:23:00;;;;;;;9.25;2.28;;;;;;;3.91;100.00;101191.00;4914725;29;20066;-74
2023/04/27 00:25:26;;;;;;;7.25;2.20;;;;;;;3.86;100.00;101192.19;4914937;29;20051;-72
2023/04/27 00:27:53;;;;;;;5.82;1.73;;;;;;;3.84;100.00;101190.59;4915049;29;20052;-74
2023/04/27 00:30:20;;;;;;;8.45;1.70;;;;;;;3.88;100.00;101192.06;4905021;29;20080;-73
2023/04/27 00:32:46;;;;;;;11.40;1.95;;;;;;;3.91;100.00;101196.31;4914382;29;20079;-73
2023/04/27 00:35:13;;;;;;;7.38;2.17;;;;;;;3.93;100.00;101197.06;4914373;29;20048;-75
2023/04/27 00:37:39;;;;;;;13.05;2.03;;;;;;;3.85;100.00;101195.78;4914820;29;20099;-74
2023/04/27 00:40:07;;;;;;;7.30;1.40;;;;;;;3.86;100.00;101194.84;4913799;29;20501;-73
2023/04/27 00:42:34;;;;;;;13.10;2.00;;;;;;;3.88;100.00;101197.38;4914304;29;20407;-74
2023/04/27 00:45:02;;;;;;;5.63;2.17;;;;;;;3.89;100.00;101198.22;4914265;29;20135;-73
2023/04/27 00:47:29;;;;;;;17.98;1.95;;;;;;;3.73;100.00;101198.44;4913460;29;20557;-73
2023/04/27 00:49:56;;;;;;;10.93;2.10;;;;;;;3.72;100.00;101208.16;4913061;29;20111;-74
2023/04/27 00:52:22;;;;;;;8.13;1.83;;;;;;;3.82;100.00;101203.09;4914067;29;20051;-73
2023/04/27 00:54:51;;;;;;;11.82;1.95;;;;;;;3.81;100.00;101206.72;4914278;29;20062;-73
2023/04/27 00:57:18;;;;;;;8.95;2.22;;;;;;;3.82;100.00;101209.25;4913881;29;20131;-74
2023/04/27 00:59:45;;;;;;;10.00;2.22;;;;;;;3.83;100.00;101215.44;4913504;29;20048;-75
2023/04/27 01:02:12;;;;;;;11.73;2.47;;;;;;;3.77;100.00;101206.06;4914338;29;20054;-74
2023/04/27 01:04:40;;;;;;;9.05;1.75;;;;;;;3.79;100.00;101214.78;4914567;29;20451;-74
2023/04/27 01:07:25;;;;;;;12.20;2.40;;;;;;;3.77;100.00;101213.19;4915661;29;20058;-73
2023/04/27 01:09:52;;;;;;;14.80;1.98;;;;;;;3.73;100.00;101209.91;4912898;29;20131;-72
2023/04/27 01:12:19;;;;;;;11.05;2.17;;;;;;;3.69;100.00;101213.72;4914714;29;20058;-74
2023/04/27 01:14:46;;;;;;;12.43;1.95;;;;;;;3.68;100.00;101214.66;4912891;29;20123;-74
2023/04/27 01:17:13;;;;;;;13.43;2.42;;;;;;;3.59;100.00;101212.63;4913908;29;20067;-74
2023/04/27 01:19:39;;;;;;;5.45;1.92;;;;;;;3.73;100.00;101220.50;4913487;29;20481;-74
2023/04/27 01:22:07;;;;;;;9.27;2.28;;;;;;;3.68;100.00;101212.00;4896001;29;20048;-74
2023/04/27 01:24:33;;;;;;;7.03;1.67;;;;;;;3.64;100.00;101223.78;4913501;29;20051;-73
2023/04/27 01:27:01;;;;;;;11.43;2.30;;;;;;;3.57;100.00;101220.69;4913594;29;20056;-74
2023/04/27 01:29:27;;;;;;;10.40;1.92;;;;;;;3.68;100.00;101222.59;4913716;29;20413;-73
2023/04/27 01:31:54;;;;;;;8.38;2.00;;;;;;;3.61;100.00;101216.00;4913264;29;20048;-74
2023/04/27 01:34:21;;;;;;;7.70;2.15;;;;;;;3.57;100.00;101222.47;4913920;29;20059;-74
2023/04/27 01:36:47;;;;;;;9.70;2.15;;;;;;;3.62;100.00;101223.88;4915049;29;20044;-75
2023/04/27 01:39:15;;;;;;;10.82;2.22;;;;;;;3.57;100.00;101231.28;4914425;29;20413;-74
2023/04/27 01:41:41;;;;;;;8.88;2.53;;;;;;;3.56;100.00;101234.91;4914837;29;20089;-73
2023/04/27 01:44:08;;;;;;;9.70;2.53;;;;;;;3.47;100.00;101234.66;4908039;29;20052;-75
2023/04/27 01:46:34;;;;;;;12.32;2.20;;;;;;;3.54;100.00;101238.59;4914717;29;20068;-74
2023/04/27 01:49:01;;;;;;;8.63;2.63;;;;;;;3.61;100.00;101239.91;4913066;29;20052;-74
2023/04/27 01:51:27;;;;;;;10.18;2.25;;;;;;;3.55;100.00;101240.28;4914679;29;20107;-73
2023/04/27 01:53:54;;;;;;;8.20;2.30;;;;;;;3.59;100.00;101245.31;4915352;29;20052;-73
2023/04/27 01:56:20;;;;;;;7.60;2.00;;;;;;;3.52;100.00;101241.38;4914848;29;20135;-75
2023/04/27 01:58:47;;;;;;;7.22;2.00;;;;;;;3.50;100.00;101240.59;4914719;29;20133;-75
2023/04/27 02:01:14;;;;;;;10.38;2.78;;;;;;;3.51;100.00;101252.06;4914834;29;20048;-74
2023/04/27 02:03:40;;;;;;;6.82;2.28;;;;;;;3.42;100.00;101253.53;4916226;29;20421;-74
2023/04/27 02:06:08;;;;;;;10.75;2.33;;;;;;;3.38;100.00;101252.03;4917940;29;20048;-73
2023/04/27 02:08:34;;;;;;;13.55;2.00;;;;;;;3.33;100.00;101247.03;4918210;29;20477;-73
2023/04/27 02:11:01;;;;;;;12.50;2.22;;;;;;;3.41;100.00;101256.28;4918469;29;20052;-73
2023/04/27 02:13:27;;;;;;;12.68;3.33;;;;;;;3.46;100.00;101260.34;4918284;29;20131;-74
2023/04/27 02:15:55;;;;;;;6.13;2.22;;;;;;;3.39;100.00;101267.00;4915065;29;20048;-73
2023/04/27 02:18:21;;;;;;;7.97;2.65;;;;;;;3.37;100.00;101264.44;4917708;29;20054;-75
2023/04/27 02:20:48;;;;;;;11.88;2.35;;;;;;;3.39;100.00;101259.03;4917888;29;20068;-75
2023/04/27 02:23:15;;;;;;;18.90;2.75;;;;;;;3.31;100.00;101264.84;4917411;29;20052;-74
2023/04/27 02:25:45;;;;;;;15.07;2.42;;;;;;;3.32;100.00;101258.59;4917629;29;20080;-75
2023/04/27 02:28:12;;;;;;;9.90;2.20;;;;;;;3.39;100.00;101267.84;4918676;29;20048;-76
2023/04/27 02:30:40;;;;;;;8.75;2.40;;;;;;;3.36;100.00;101267.19;4916590;29;20142;-74
2023/04/27 02:33:06;;;;;;;10.10;2.53;;;;;;;3.41;100.00;101264.22;4917395;29;20076;-75
2023/04/27 02:35:33;;;;;;;12.77;2.78;;;;;;;3.36;100.00;101270.69;4917709;29;20568;-73
2023/04/27 02:38:00;;;;;;;13.88;2.88;;;;;;;3.38;100.00;101271.47;4908183;29;20123;-74
2023/04/27 02:40:26;;;;;;;8.63;2.28;;;;;;;3.35;100.00;101266.34;4917057;29;20059;-75
2023/04/27 02:42:53;;;;;;;11.88;2.28;;;;;;;3.35;100.00;101266.34;4917160;29;20040;-73
2023/04/27 02:45:19;;;;;;;12.48;2.72;;;;;;;3.42;100.00;101274.75;4916123;29;20048;-75
2023/04/27 02:47:46;;;;;;;12.90;2.60;;;;;;;3.37;100.00;101269.72;4916081;29;20108;-75
2023/04/27 02:50:13;;;;;;;8.77;2.10;;;;;;;3.36;100.00;101276.00;4916471;29;20505;-74
2023/04/27 02:52:39;;;;;;;10.18;2.75;;;;;;;3.43;100.00;101265.00;4915709;29;20062;-72
2023/04/27 02:55:06;;;;;;;7.78;2.72;;;;;;;3.24;100.00;101266.22;4916242;29;20135;-73
2023/04/27 02:57:33;;;;;;;7.80;2.22;;;;;;;3.31;100.00;101270.16;4917168;29;20055;-74
2023/04/27 02:59:59;;;;;;;12.05;2.53;;;;;;;3.25;100.00;101278.50;4911153;29;20048;-74
2023/04/27 03:02:28;;;;;;;9.80;2.40;;;;;;;3.28;100.00;101278.31;4915912;29;20577;-74
2023/04/27 03:04:55;;;;;;;7.80;2.25;;;;;;;3.21;100.00;101270.84;4898096;29;20142;-75
2023/04/27 03:07:21;;;;;;;11.00;3.03;;;;;;;3.27;100.00;101281.88;4915187;29;20138;-74
2023/04/27 03:09:48;;;;;;;13.07;3.03;;;;;;;3.30;100.00;101276.38;4907720;29;20051;-74
2023/04/27 03:12:15;;;;;;;7.15;2.13;;;;;;;3.23;100.00;101275.09;4916101;29;20059;-73
2023/04/27 03:14:41;;;;;;;11.63;2.20;;;;;;;3.29;100.00;101282.66;4914508;29;20048;-75
2023/04/27 03:17:08;;;;;;;11.30;2.88;;;;;;;3.27;100.00;101279.25;4915660;29;20075;-72
2023/04/27 03:19:34;;;;;;;14.15;2.80;;;;;;;3.25;100.00;101278.50;4915488;29;20048;-73
2023/04/27 03:22:01;;;;;;;8.48;1.90;;;;;;;3.27;100.00;101281.03;4916198;29;20557;-72
2023/04/27 03:24:28;;;;;;;10.10;2.60;;;;;;;3.21;100.00;101292.06;4898815;29;20104;-73
2023/04/27 03:26:54;;;;;;;15.88;2.70;;;;;;;3.23;100.00;101295.47;4915526;29;20051;-74
2023/04/27 03:29:21;;;;;;;10.18;2.22;;;;;;;3.22;100.00;101294.59;4911493;29;20044;-73
2023/04/27 03:31:47;;;;;;;9.25;2.50;;;;;;;3.14;100.00;101289.81;4915082;29;20090;-74
2023/04/27 03:34:14;;;;;;;14.98;2.80;;;;;;;3.13;100.00;101290.75;4916093;29;20091;-75
2023/04/27 03:36:41;;;;;;;9.45;2.20;;;;;;;3.18;100.00;101297.56;4915006;29;20051;-74
2023/04/27 03:39:07;;;;;;;11.23;2.60;;;;;;;3.19;100.00;101293.97;4915324;29;20569;-73
2023/04/27 03:41:34;;;;;;;9.30;2.60;;;;;;;3.12;100.00;101298.78;4915446;29;20520;-74
2023/04/27 03:44:00;;;;;;;13.73;2.58;;;;;;;3.23;100.00;101298.94;4915698;29;20417;-73
2023/04/27 03:46:27;;;;;;;14.77;2.38;;;;;;;3.22;100.00;101304.38;4915447;29;20044;-74
2023/04/27 03:48:54;;;;;;;8.90;2.72;;;;;;;3.27;100.00;101302.25;4914653;29;20048;-75
2023/04/27 03:51:20;;;;;;;12.88;2.42;;;;;;;3.06;100.00;101302.69;4914751;29;20492;-73
2023/04/27 03:53:47;;;;;;;8.93;2.70;;;;;;;3.18;100.00;101309.03;4913567;29;20056;-73
2023/04/27 03:56:13;;;;;;;7.35;2.28;;;;;;;3.14;100.00;101303.06;4914662;29;20054;-73
2023/04/27 03:58:40;;;;;;;10.80;2.78;;;;;;;3.22;100.00;101309.66;4915560;29;20060;-72
2023/04/27 04:01:09;;;;;;;12.00;2.35;;;;;;;3.18;100.00;101318.78;4913487;29;20044;-73
2023/04/27 04:03:36;;;;;;;14.70;3.15;;;;;;;3.10;100.00;101320.13;4914817;29;20107;-72
2023/04/27 04:06:03;;;;;;;6.60;2.40;;;;;;;3.15;100.00;101322.47;4916260;29;20048;-72
2023/04/27 04:08:31;;;;;;;8.70;2.95;;;;;;;3.13;100.00;101324.34;4919435;29;20374;-74
2023/04/27 04:10:58;;;;;;;11.23;3.03;;;;;;;3.13;100.00;101321.69;4917848;29;20436;-73
2023/04/27 04:13:25;;;;;;;10.50;2.63;;;;;;;3.18;100.00;101324.94;4917185;29;20489;-74
2023/04/27 04:16:05;;;;;;;14.05;2.95;;;;;;;3.03;100.00;101329.41;4917054;29;20421;-74
2023/04/27 04:18:32;;;;;;;13.13;3.25;;;;;;;2.91;100.00;101333.66;4919735;29;20048;-74
2023/04/27 04:20:59;;;;;;;10.75;2.83;;;;;;;3.08;100.00;101334.41;4919144;29;20103;-74
2023/04/27 04:23:26;;;;;;;12.25;3.20;;;;;;;3.11;100.00;101328.91;4920213;29;20521;-73
2023/04/27 04:25:56;;;;;;;13.35;3.60;;;;;;;3.05;100.00;101335.44;4908794;29;20082;-73
2023/04/27 04:28:23;;;;;;;8.98;2.70;;;;;;;3.07;100.00;101338.88;4900229;29;20064;-72
2023/04/27 04:30:51;;;;;;;18.15;3.08;;;;;;;3.06;100.00;101336.28;4917186;29;20056;-74
2023/04/27 04:33:17;;;;;;;12.25;2.70;;;;;;;3.08;100.00;101334.41;4917881;29;20071;-73
2023/04/27 04:35:45;;;;;;;10.20;2.95;;;;;;;3.17;100.00;101338.25;4919185;29;20105;-74
2023/04/27 04:38:11;;;;;;;11.98;3.30;;;;;;;3.21;100.00;101343.28;4919281;29;20055;-73
2023/04/27 04:40:40;;;;;;;15.77;2.58;;;;;;;3.17;100.00;101341.78;4918746;29;20056;-73
2023/04/27 04:43:08;;;;;;;10.32;2.65;;;;;;;3.17;100.00;101341.78;4918174;29;20040;-73
2023/04/27 04:45:34;;;;;;;12.38;2.78;;;;;;;3.18;100.00;101340.84;4919462;29;20123;-74
2023/04/27 04:48:01;;;;;;;12.43;2.75;;;;;;;3.16;100.00;101350.66;4918593;29;20071;-72
2023/04/27 04:50:28;;;;;;;16.08;2.97;;;;;;;3.22;100.00;101346.78;4919096;29;20475;-73
2023/04/27 04:52:55;;;;;;;12.02;2.78;;;;;;;3.27;100.00;101350.00;4919674;29;20056;-73
2023/04/27 04:55:21;;;;;;;14.52;3.88;;;;;;;3.25;100.00;101351.91;4920118;29;20055;-74
2023/04/27 04:57:48;;;;;;;10.77;2.88;;;;;;;3.23;100.00;101356.44;4918442;29;20059;-73
2023/04/27 05:00:15;;;;;;;11.80;3.00;;;;;;;3.29;100.00;101358.72;4918553;29;20055;-73
2023/04/27 05:02:41;;;;;;;15.00;2.95;;;;;;;3.19;100.00;101358.44;4919171;29;20074;-73
2023/04/27 05:05:09;;;;;;;13.45;3.95;;;;;;;3.29;100.00;101358.72;4919700;29;20052;-72
2023/04/27 05:07:35;;;;;;;13.35;3.50;;;;;;;3.32;100.00;101364.66;4920388;29;20052;-74
2023/04/27 05:10:02;;;;;;;9.52;2.83;;;;;;;3.47;100.00;101354.88;4901849;29;20487;-72
2023/04/27 05:12:29;;;;;;;11.25;3.25;;;;;;;3.41;100.00;101362.38;4919588;29;20047;-73
2023/04/27 05:14:55;;;;;;;13.05;3.20;;;;;;;3.39;100.00;101365.13;4919872;29;20462;-74
2023/04/27 05:17:22;;;;;;;15.68;3.13;;;;;;;3.52;100.00;101371.34;4919617;29;20040;-73
2023/04/27 05:19:48;;;;;;;18.85;3.47;;;;;;;3.41;100.00;101370.31;4919299;29;20107;-72
2023/04/27 05:22:15;;;;;;;15.25;3.95;;;;;;;3.58;100.00;101370.09;4918631;29;20052;-73
2023/04/27 05:24:42;;;;;;;10.48;2.63;;;;;;;3.61;100.00;101373.41;4917392;29;20052;-74
2023/04/27 05:27:08;;;;;;;13.25;3.47;;;;;;;3.56;100.00;101370.22;4919321;29;20131;-74
2023/04/27 05:29:35;;;;;;;14.48;2.63;;;;;;;3.62;100.00;101366.31;4917941;29;20052;-74
2023/04/27 05:32:02;;;;;;;14.20;3.35;;;;;;;3.55;100.00;101368.50;4917584;29;20054;-74
2023/04/27 05:34:28;;;;;;;11.88;3.30;;;;;;;3.76;100.00;101353.00;4918712;29;20457;-74
2023/04/27 05:36:55;;;;;;;18.77;2.60;;;;;;;3.77;100.00;101359.16;4917752;29;20112;-74
2023/04/27 05:39:21;;;;;;;14.98;3.88;;;;;;;3.75;100.00;101361.88;4917429;29;20051;-74
2023/04/27 05:41:48;;;;;;;12.82;2.97;;;;;;;3.84;100.00;101361.28;4918824;29;20052;-74
2023/04/27 05:44:15;;;;;;;10.60;2.78;;;;;;;3.88;100.00;101366.41;4916988;29;20096;-74
2023/04/27 05:46:41;;;;;;;10.15;3.60;;;;;;;4.00;100.00;101373.53;4915457;29;20052;-74
2023/04/27 05:49:08;;;;;;;12.05;2.67;;;;;;;4.07;100.00;101372.19;4916845;29;20055;-74
2023/04/27 05:51:35;;;;;;;14.15;3.03;;;;;;;4.12;100.00;101369.25;4916105;29;20058;-74
2023/04/27 05:54:01;;;;;;;13.85;3.10;;;;;;;4.24;100.00;101371.94;4915429;29;20059;-73
2023/04/27 05:56:28;;;;;;;13.95;2.42;;;;;;;4.20;100.00;101378.38;4912868;29;20071;-74
2023/04/27 05:58:54;;;;;;;16.92;3.65;;;;;;;4.44;100.00;101380.38;4915356;29;20058;-74
2023/04/27 06:01:21;;;;;;;15.40;2.72;;;;;;;4.57;100.00;101381.25;4913419;29;20428;-74
2023/04/27 06:03:47;;;;;;;11.98;3.08;;;;;;;4.59;100.00;101376.69;4916039;29;20052;-74
2023/04/27 06:06:14;;;;;;;11.82;2.72;;;;;;;4.56;100.00;101390.19;4915749;29;20055;-74
2023/04/27 06:08:41;;;;;;;19.92;2.85;;;;;;;4.64;100.00;101392.31;4915050;29;20111;-74
2023/04/27 06:11:07;;;;;;;12.73;2.85;;;;;;;4.69;100.00;101391.00;4898165;29;20048;-74
2023/04/27 06:13:34;;;;;;;11.95;2.42;;;;;;;4.87;100.00;101388.03;4915192;29;20054;-74
2023/04/27 06:16:00;;;;;;;10.93;2.60;;;;;;;5.13;100.00;101391.53;4913998;29;20470;-73
2023/04/27 06:18:27;;;;;;;14.60;3.22;;;;;;;5.63;100.00;101393.25;4912742;29;20044;-74
2023/04/27 06:21:00;;;;;;;13.93;2.83;;;;;;;5.11;100.00;101397.00;4913549;29;20107;-74
2023/04/27 06:23:28;;;;;;;16.92;3.30;;;;;;;5.19;100.00;101399.09;4913113;29;20462;-74
2023/04/27 06:25:54;;;;;;;27.52;3.42;;;;;;;5.42;100.00;101389.44;4897844;29;20052;-74
2023/04/27 06:28:21;;;;;;;11.18;2.65;;;;;;;5.50;99.30;101393.28;4909400;29;20063;-74
2023/04/27 06:30:48;;;;;;;13.68;2.90;;;;;;;5.44;100.00;101398.19;4913332;29;20129;-74
2023/04/27 06:33:14;;;;;;;12.65;2.80;;;;;;;5.67;98.12;101401.88;4914480;29;20135;-74
2023/04/27 06:35:41;;;;;;;10.70;2.30;;;;;;;5.79;95.93;101395.63;4912938;29;20044;-74
2023/04/27 06:38:11;;;;;;;10.73;2.08;;;;;;;5.68;96.62;101393.75;4913638;29;20052;-74
2023/04/27 06:40:38;;;;;;;11.23;2.45;;;;;;;5.98;92.68;101392.47;4909930;29;20486;-74
2023/04/27 06:43:04;;;;;;;8.85;2.53;;;;;;;5.81;87.79;101406.19;4910619;29;20048;-74
2023/04/27 06:45:30;;;;;;;15.98;2.38;;;;;;;5.97;89.27;101406.72;4914560;29;20054;-74
2023/04/27 06:47:57;;;;;;;14.48;2.40;;;;;;;6.31;85.93;101405.09;4912977;29;20052;-75
2023/04/27 06:50:23;;;;;;;6.50;2.22;;;;;;;6.12;86.33;101407.41;4915893;29;20051;-74
2023/04/27 06:52:50;;;;;;;32.15;3.22;;;;;;;6.31;79.64;101409.56;4917401;29;20076;-74
2023/04/27 06:55:17;;;;;;;16.00;3.30;;;;;;;6.31;78.15;101414.91;4916729;29;20052;-74
2023/04/27 06:57:43;;;;;;;12.32;2.10;;;;;;;6.15;77.25;101409.88;4917271;29;20135;-74
2023/04/27 07:00:12;;;;;;;10.15;2.35;;;;;;;6.31;76.20;101410.41;4914735;29;20127;-74
2023/04/27 07:02:38;;;;;;;10.32;2.80;;;;;;;6.50;76.80;101415.22;4906738;29;20056;-74
2023/04/27 07:05:05;;;;;;;7.38;2.00;;;;;;;6.77;73.43;101416.72;4915956;29;20048;-74
2023/04/27 07:07:32;;;;;;;8.45;1.63;;;;;;;7.50;69.45;101410.06;4917349;29;20047;-74
2023/04/27 07:09:58;;;;;;;8.52;2.22;;;;;;;7.70;66.63;101411.13;4915933;29;20048;-74
2023/04/27 07:12:25;;;;;;;10.82;2.22;;;;;;;8.00;65.21;101411.34;4915752;29;20048;-75
2023/04/27 07:14:52;;;;;;;12.57;2.33;;;;;;;8.26;64.68;101413.66;4913886;29;20048;-74
2023/04/27 07:17:18;;;;;;;19.20;3.15;;;;;;;7.80;65.64;101414.75;4915401;29;20047;-74
2023/04/27 07:19:45;;;;;;;13.88;2.20;;;;;;;7.31;68.33;101416.03;4915907;29;20115;-75
2023/04/27 07:22:12;;;;;;;10.55;2.40;;;;;;;6.67;71.14;101417.44;4915138;29;20421;-75
2023/04/27 07:24:38;;;;;;;19.52;2.80;;;;;;;6.82;68.78;101410.06;4915021;29;20059;-74
2023/04/27 07:27:07;;;;;;;11.05;2.47;;;;;;;7.18;66.84;101413.50;4915194;29;20079;-75
2023/04/27 07:29:36;;;;;;;9.73;2.25;;;;;;;7.35;65.84;101413.00;4915613;29;20425;-75
2023/04/27 07:32:05;;;;;;;8.75;2.15;;;;;;;7.61;65.16;101410.06;4915247;29;20131;-75
2023/04/27 07:34:32;;;;;;;8.40;2.08;;;;;;;8.60;61.10;101415.19;4915772;29;20416;-74
2023/04/27 07:37:16;;;;;;;12.18;2.67;;;;;;;8.94;57.99;101416.81;4916025;29;20051;-75
2023/04/27 07:39:42;;;;;;;8.15;1.77;;;;;;;8.60;60.15;101417.84;4915093;29;20485;-75
2023/04/27 07:42:09;;;;;;;9.07;2.20;;;;;;;8.90;57.63;101408.19;4915846;29;20056;-75
2023/04/27 07:44:35;;;;;;;8.00;2.10;;;;;;;8.65;56.08;101411.28;4915281;29;20048;-75
2023/04/27 07:47:02;;;;;;;11.77;2.42;;;;;;;9.24;55.64;101416.84;4915102;29;20048;-74
2023/04/27 07:49:29;;;;;;;14.10;2.50;;;;;;;9.73;53.98;101408.97;4898748;29;20054;-75
2023/04/27 07:51:56;;;;;;;9.02;1.92;;;;;;;10.04;54.44;101418.59;4905909;29;20103;-74
2023/04/27 07:54:23;;;;;;;12.50;1.83;;;;;;;9.77;55.48;101419.25;4913438;29;20083;-74
2023/04/27 07:56:50;;;;;;;10.75;2.47;;;;;;;9.18;55.98;101417.34;4899002;29;20072;-75
2023/04/27 07:59:17;;;;;;;10.15;1.88;;;;;;;8.78;56.07;101431.53;4915733;29;20061;-75
2023/04/27 08:01:43;;;;;;;11.35;2.47;;;;;;;9.71;54.27;101424.31;4912837;29;20044;-74
2023/04/27 08:04:11;;;;;;;7.55;2.20;;;;;;;10.07;51.52;101430.03;4914667;29;20048;-75
2023/04/27 08:06:38;;;;;;;8.40;1.80;;;;;;;9.41;52.33;101434.13;4914706;29;20052;-74
2023/04/27 08:09:06;;;;;;;9.27;1.80;;;;;;;8.79;53.81;101432.38;4913402;29;20143;-74
2023/04/27 08:11:33;;;;;;;7.68;1.98;;;;;;;8.76;54.11;101432.63;4915215;29;20413;-75
2023/04/27 08:13:59;;;;;;;12.70;2.30;;;;;;;8.27;55.92;101428.75;4914576;29;20056;-75
2023/04/27 08:16:26;;;;;;;6.53;2.50;;;;;;;8.24;56.36;101429.00;4914331;29;20409;-75
2023/04/27 08:18:53;;;;;;;11.85;2.30;;;;;;;8.56;55.48;101427.13;4915363;29;20052;-75
2023/04/27 08:21:20;;;;;;;10.63;2.08;;;;;;;8.47;56.64;101441.28;4914820;29;20048;-75
2023/04/27 08:23:47;;;;;;;11.35;2.47;;;;;;;8.28;55.68;101433.94;4914701;29;20126;-75
2023/04/27 08:26:14;;;;;;;10.93;2.40;;;;;;;7.89;56.72;101436.28;4914659;29;20386;-75
2023/04/27 08:28:41;;;;;;;15.98;3.10;;;;;;;7.48;56.93;101436.91;4913500;29;20505;-75
2023/04/27 08:31:07;;;;;;;13.93;2.67;;;;;;;7.27;57.96;101435.94;4913095;29;20048;-75
2023/04/27 08:33:34;;;;;;;14.63;2.25;;;;;;;6.86;59.13;101438.19;4913968;29;20051;-75
2023/04/27 08:36:01;;;;;;;12.65;2.78;;;;;;;6.77;60.47;101430.91;4914881;29;20052;-74
2023/04/27 08:38:27;;;;;;;20.58;2.60;;;;;;;6.70;61.93;101433.22;4914838;29;20044;-75
2023/04/27 08:40:54;;;;;;;16.98;2.40;;;;;;;6.42;62.81;101439.78;4914528;29;20054;-74
2023/04/27 08:43:20;;;;;;;9.07;2.60;;;;;;;6.43;63.94;101438.81;4914971;29;20071;-75
2023/04/27 08:45:49;;;;;;;15.98;2.97;;;;;;;6.28;65.07;101442.63;4914706;29;20040;-75
2023/04/27 08:48:15;;;;;;;18.42;2.60;;;;;;;6.43;66.60;101441.50;4913109;29;20520;-75
2023/04/27 08:50:43;;;;;;;21.40;3.65;;;;;;;6.96;64.72;101443.69;4911432;29;20121;-75
2023/04/27 08:53:21;;;;;;;6.18;2.25;;;;;;;7.06;63.99;101435.81;4914301;29;20052;-74
2023/04/27 08:55:48;;;;;;;10.45;2.38;;;;;;;6.81;63.96;101435.06;4912851;29;20122;-75
2023/04/27 08:58:15;;;;;;;10.18;2.92;;;;;;;6.23;64.80;101426.97;4912345;29;20051;-75
2023/04/27 09:00:44;;;;;;;12.77;2.72;;;;;;;6.16;64.15;101433.72;4913755;29;20446;-75
2023/04/27 09:03:24;;;;;;;18.83;3.35;;;;;;;7.23;62.47;101435.34;4913560;29;20052;-75
2023/04/27 09:05:51;;;;;;;11.80;2.42;;;;;;;7.99;58.99;101430.19;4904917;29;20072;-74
2023/04/27 09:08:45;;;;;;;10.75;2.80;;;;;;;9.10;55.33;101430.56;4912960;29;20071;-75
2023/04/27 09:11:13;;;;;;;9.65;2.33;;;;;;;9.84;52.62;101430.28;4906773;29;20075;-75
2023/04/27 09:13:43;;;;;;;10.40;2.60;;;;;;;9.35;51.30;101428.44;4912326;29;20055;-75
2023/04/27 09:16:13;;;;;;;10.90;2.30;;;;;;;8.64;51.73;101439.00;4914064;29;20052;-75
2023/04/27 09:18:42;;;;;;;6.03;2.22;;;;;;;8.23;52.57;101435.31;4913768;29;20056;-75
2023/04/27 09:21:09;;;;;;;14.98;2.38;;;;;;;7.60;54.40;101443.06;4913837;29;20044;-75
2023/04/27 09:23:38;;;;;;;10.50;2.42;;;;;;;7.82;54.65;101439.53;4913851;29;20052;-74
2023/04/27 09:26:08;;;;;;;10.93;2.50;;;;;;;7.42;55.41;101443.56;4913599;29;20491;-74
2023/04/27 09:28:39;;;;;;;8.23;2.60;;;;;;;7.09;57.47;101436.44;4913207;29;20138;-74
2023/04/27 09:31:08;;;;;;;9.55;2.10;;;;;;;7.04;57.74;101438.59;4912396;29;20065;-74
2023/04/27 09:33:35;;;;;;;15.05;1.98;;;;;;;7.15;58.15;101435.94;4913856;29;20051;-75
2023/04/27 09:36:04;;;;;;;11.93;2.30;;;;;;;7.34;58.82;101426.47;4913386;29;20071;-75
2023/04/27 09:38:32;;;;;;;9.32;2.53;;;;;;;7.87;57.57;101426.66;4913271;29;20135;-74
2023/04/27 09:40:59;;;;;;;16.10;2.67;;;;;;;8.02;56.22;101421.88;4912448;29;20048;-74
2023/04/27 09:43:27;;;;;;;9.38;2.20;;;;;;;7.84;56.34;101419.75;4910509;29;20055;-75
2023/04/27 09:45:54;;;;;;;7.10;1.77;;;;;;;8.11;55.36;101418.47;4896354;29;20052;-74
2023/04/27 09:48:22;;;;;;;8.85;2.50;;;;;;;8.35;53.29;101418.25;4914018;29;20501;-75
2023/04/27 09:50:50;;;;;;;16.33;2.67;;;;;;;8.30;52.60;101409.78;4912483;29;20446;-75
2023/04/27 09:53:35;;;;;;;19.30;4.72;;;;;;;7.68;53.51;101411.28;4913128;29;20405;-75
2023/04/27 09:56:39;;;;;;;8.05;1.90;;;;;;;7.78;53.91;101408.72;4912738;29;20071;-75
2023/04/27 09:59:38;;;;;;;9.52;1.95;;;;;;;7.52;55.44;101400.97;4885171;29;20485;-75
2023/04/27 10:02:11;;;;;;;11.48;2.22;;;;;;;8.82;53.16;101405.34;4912872;29;20139;-75
2023/04/27 10:05:36;;;;;;;4.05;1.90;;;;;;;9.75;50.04;101402.50;4903203;29;20048;-75
2023/04/27 10:08:05;;;;;;;6.82;2.25;;;;;;;10.86;45.70;101395.84;4877093;29;20121;-75
2023/04/27 10:10:42;;;;;;;5.45;1.80;;;;;;;12.30;42.37;101381.72;4912726;29;20052;-75
2023/04/27 10:13:23;;;;;;;8.02;1.67;;;;;;;11.69;41.52;101388.69;4912288;29;20044;-76
2023/04/27 10:15:51;;;;;;;9.13;1.80;;;;;;;10.99;42.51;101399.03;4909179;29;20441;-75
2023/04/27 10:18:30;;;;;;;10.32;2.17;;;;;;;11.85;41.00;101398.75;4912831;29;20074;-75
2023/04/27 10:21:09;;;;;;;5.55;1.55;;;;;;;13.22;40.09;101388.41;4912784;29;20044;-75
2023/04/27 10:23:45;;;;;;;5.65;1.67;;;;;;;12.38;38.79;101395.25;4913142;29;20493;-75
2023/04/27 10:26:12;;;;;;;6.07;1.50;;;;;;;11.65;39.91;101391.78;4915888;29;20054;-75
2023/04/27 10:28:40;;;;;;;7.78;1.70;;;;;;;11.22;40.65;101386.09;4916493;29;20459;-75
2023/04/27 10:31:10;;;;;;;5.75;1.58;;;;;;;11.50;41.29;101387.94;4916373;29;20131;-75
2023/04/27 10:33:42;;;;;;;10.20;1.92;;;;;;;12.07;39.96;101383.16;4915902;29;20060;-75
2023/04/27 10:36:14;;;;;;;5.15;1.48;;;;;;;12.52;39.73;101392.97;4915978;29;20057;-75
2023/04/27 10:38:41;;;;;;;9.73;1.85;;;;;;;12.05;40.09;101399.47;4915936;29;20078;-75
2023/04/27 10:41:13;;;;;;;6.95;1.58;;;;;;;11.25;40.74;101387.63;4916397;29;20058;-75
2023/04/27 10:43:40;;;;;;;5.38;1.55;;;;;;;10.60;42.09;101392.91;4916337;29;20139;-75
2023/04/27 10:46:11;;;;;;;11.98;1.98;;;;;;;10.02;43.10;101390.22;4915870;29;20051;-75
2023/04/27 10:48:39;;;;;;;10.30;1.67;;;;;;;9.63;43.72;101392.03;4915959;29;20180;-74
2023/04/27 10:51:06;;;;;;;6.90;2.20;;;;;;;9.20;44.57;101387.78;4916997;29;20048;-75
2023/04/27 10:53:37;;;;;;;6.03;2.10;;;;;;;8.89;45.86;101390.44;4915396;29;20075;-75
2023/04/27 10:56:05;;;;;;;8.70;1.80;;;;;;;8.92;45.84;101394.66;4914622;29;20416;-75
2023/04/27 10:58:33;;;;;;;5.03;2.20;;;;;;;8.50;46.40;101395.53;4897803;29;20127;-75
2023/04/27 11:01:23;;;;;;;11.30;1.70;;;;;;;8.63;46.79;101391.84;4913979;29;20071;-74
2023/04/27 11:03:57;;;;;;;8.35;1.90;;;;;;;8.09;47.75;101391.03;4915633;29;20048;-75
2023/04/27 11:06:24;;;;;;;18.60;2.38;;;;;;;8.41;48.13;101395.50;4923730;29;20055;-71
2023/04/27 11:08:51;;;;;;;7.15;2.13;;;;;;;8.53;47.40;101399.78;4925020;29;20048;-70
2023/04/27 11:11:18;;;;;;;6.65;2.30;;;;;;;8.45;47.22;101402.28;4933642;29;20063;-71
2023/04/27 11:13:48;;;;;;;9.32;1.98;;;;;;;9.34;45.73;101395.47;4922896;29;20056;-71
2023/04/27 11:16:15;;;;;;;7.32;1.55;;;;;;;10.14;43.13;101383.75;4913175;29;20048;-71
2023/04/27 11:18:42;;;;;;;5.13;1.70;;;;;;;10.73;41.33;101381.88;4909748;29;20064;-71
2023/04/27 11:21:12;;;;;;;5.45;1.35;;;;;;;10.57;41.40;101385.16;4901825;29;20048;-71
2023/04/27 11:23:40;;;;;;;4.72;1.33;;;;;;;10.15;41.09;101380.09;4897163;29;20139;-68
2023/04/27 11:26:14;;;;;;;5.63;1.30;;;;;;;11.34;38.33;101384.03;4896620;29;20135;-71
2023/04/27 11:28:55;;;;;;;9.70;1.67;;;;;;;10.58;38.64;101383.31;4896920;29;20429;-71